Tahoe Paradise, CA (96155)

12:22 PM PDT on September 27, 2016 (GMT -0700)
HADS | | Change Station

Elev 8350 ft 38.92 °N, 120.20 °W | Updated 287 days ago

Clear
Clear
74 °F
Feels Like 74 °F
N
5
Wind Variable Wind from ENE
Gusts mph

Today
High -- | Low -- °F
--% Chance of Precip.
Yesterday
High -- | Low -- °F
Precip. -- in
Pressure 30.09 in
Visibility 10.0 miles
Clouds Clear
Dew Point 31 °F
Humidity 21%
Rainfall in
Snow Depth Not available.
6:53 AM 6:48 PM
Waning Crescent, 10% visible
METAR KTVL 271853Z AUTO VRB04KT 10SM CLR 22/01 A3024 RMK AO2 SLP190 T02170006
Pressure 30.09 in
Visibility 10.0 miles
Clouds Clear
Dew Point 31 °F
Humidity 21%
Rainfall in
Snow Depth Not available.
6:53 AM 6:48 PM
Waning Crescent, 10% visible
METAR KTVL 271853Z AUTO VRB04KT 10SM CLR 22/01 A3024 RMK AO2 SLP190 T02170006

10-Day Weather Forecast

Almanac

Astronomy

Sep. 27, 2016 Rise Set
Actual Time
Civil Twilight
Nautical Twilight
Astronomical Twilight
Moon
Length of Visible Light
Length of Day
Tomorrow will be .
, % of the Moon is Illuminated

Today's Extremes

State Highs State Lows

Community

WunderPhotos

Upload Photos

1,942,166 photos uploaded!

WunderBlog® & News

Nearby

Air Quality

  Air Quality AQ Index Pollutant
Not available.

Snow Depth

Station Depth Elevation

Earthquake Activity

City Distance Mag. Time & Date
Minimum magnitude displayed is 2.5.

Coastal Water Temperatures

Place Temperature

Stations

Nearby Weather Stations

Station Location Temp. Windchill Dew Point Humidity Wind Precip. Elev Updated Type
                   

Watches & Warnings

There are currently no watches in effect.